Time;durP1;ratioP1;P1;durP2;ratioP2;P2;SDS_P1;SDS_P2;PMS_P1;PMS_P2;Temp;Humidity;BMP_temperature;BMP_pressure;BME280_temperature;BME280_humidity;BME280_pressure;Samples;Min_cycle;Max_cycle;Signal;HPM_P1;HPM_P2
2023/03/10 00:01:29;;;;;;;1.20;1.00;;;;;;;-0.87;98.28;99035.34;10591755;27;20051;-80
2023/03/10 00:06:34;;;;;;;1.27;1.17;;;;;;;-0.83;98.25;99031.19;10574607;27;20047;-81
2023/03/10 00:11:35;;;;;;;2.10;1.25;;;;;;;-0.84;98.29;99034.56;10582877;27;20494;-81
2023/03/10 00:16:37;;;;;;;1.98;1.38;;;;;;;-0.85;98.43;99018.28;10597918;27;20046;-80
2023/03/10 00:21:38;;;;;;;1.85;0.80;;;;;;;-0.85;98.39;99008.00;10582391;27;20039;-82
2023/03/10 00:26:40;;;;;;;1.00;0.95;;;;;;;-0.87;98.45;98998.47;10589090;27;20047;-81
2023/03/10 00:31:42;;;;;;;1.40;1.30;;;;;;;-0.86;98.59;98984.81;10564975;27;20051;-80
2023/03/10 00:36:43;;;;;;;0.95;0.93;;;;;;;-0.85;98.68;98981.44;10564585;27;20047;-82
2023/03/10 00:41:45;;;;;;;1.02;0.95;;;;;;;-0.89;98.34;98959.88;10570947;27;20047;-82
2023/03/10 00:46:47;;;;;;;1.08;0.90;;;;;;;-0.87;98.69;98952.22;10572989;27;20043;-81
2023/03/10 00:51:48;;;;;;;1.52;1.42;;;;;;;-0.90;98.58;98948.75;10579783;27;20039;-80
2023/03/10 00:56:50;;;;;;;0.80;0.80;;;;;;;-0.93;98.25;98928.09;10600992;27;20662;-81
2023/03/10 01:01:51;;;;;;;1.15;1.08;;;;;;;-0.92;98.64;98916.09;10598810;27;20134;-81
2023/03/10 01:06:53;;;;;;;2.55;1.90;;;;;;;-0.93;98.77;98897.25;10593352;27;20456;-81
2023/03/10 01:11:54;;;;;;;0.88;0.88;;;;;;;-0.94;98.57;98895.50;10571577;27;20399;-81
2023/03/10 01:16:58;;;;;;;1.25;1.15;;;;;;;-0.95;98.73;98886.03;10569035;27;20046;-82
2023/03/10 01:21:59;;;;;;;1.60;1.23;;;;;;;-0.94;98.92;98874.06;10556636;27;20097;-81
2023/03/10 01:27:01;;;;;;;2.47;1.52;;;;;;;-0.94;98.70;98871.50;10559288;27;20111;-84
2023/03/10 01:32:03;;;;;;;1.23;1.13;;;;;;;-0.92;98.86;98863.00;10571744;27;20117;-82
2023/03/10 01:37:04;;;;;;;2.65;1.90;;;;;;;-0.94;98.76;98856.09;10572984;27;20807;-81
2023/03/10 01:42:06;;;;;;;1.27;1.17;;;;;;;-0.94;98.93;98831.25;10571684;27;20039;-81
2023/03/10 01:47:07;;;;;;;1.70;1.60;;;;;;;-0.93;98.78;98826.97;10554607;27;20069;-82
2023/03/10 01:52:22;;;;;;;1.00;1.00;;;;;;;-0.94;98.75;98817.53;10584919;27;20581;-81
2023/03/10 01:57:30;;;;;;;0.75;0.63;;;;;;;-0.93;98.85;98807.31;10567617;27;20040;-81
2023/03/10 02:02:33;;;;;;;1.60;0.85;;;;;;;-0.91;98.77;98795.38;10592715;27;20054;-81
2023/03/10 02:07:36;;;;;;;1.63;1.42;;;;;;;-0.92;99.05;98785.06;10582124;27;20077;-83
2023/03/10 02:12:40;;;;;;;1.17;1.02;;;;;;;-0.91;99.27;98774.81;10558066;27;20670;-82
2023/03/10 02:17:42;;;;;;;2.08;1.48;;;;;;;-0.90;98.96;98768.00;10565544;27;20048;-81
2023/03/10 02:22:47;;;;;;;2.47;1.90;;;;;;;-0.94;98.87;98754.19;10539184;28;20044;-81
2023/03/10 02:27:48;;;;;;;5.38;2.65;;;;;;;-0.91;99.06;98746.56;10537963;28;20051;-84
2023/03/10 02:32:54;;;;;;;2.80;1.50;;;;;;;-0.91;99.04;98741.41;10515413;28;20052;-81
2023/03/10 02:37:57;;;;;;;1.60;1.25;;;;;;;-0.93;99.29;98732.81;10541867;28;20083;-81
2023/03/10 02:43:07;;;;;;;0.82;0.82;;;;;;;-0.92;99.17;98729.38;10535376;28;20500;-81
2023/03/10 02:48:14;;;;;;;2.25;2.00;;;;;;;-0.93;99.04;98727.66;10566746;27;20067;-81
2023/03/10 02:53:19;;;;;;;1.75;1.25;;;;;;;-0.91;99.15;98730.28;10567100;27;20067;-82
2023/03/10 02:58:24;;;;;;;1.90;1.70;;;;;;;-0.92;99.00;98726.81;10552223;28;20110;-81
2023/03/10 03:03:26;;;;;;;2.13;1.60;;;;;;;-0.92;99.15;98719.09;10537653;28;20469;-81
2023/03/10 03:08:28;;;;;;;3.53;2.33;;;;;;;-0.94;99.28;98718.19;10544958;28;20516;-81
2023/03/10 03:13:30;;;;;;;1.02;1.00;;;;;;;-0.96;99.42;98717.28;10551106;28;20040;-81
2023/03/10 03:18:33;;;;;;;1.23;1.10;;;;;;;-0.98;99.36;98713.78;10543874;28;20043;-81
2023/03/10 03:23:36;;;;;;;1.45;1.15;;;;;;;-0.98;99.50;98703.50;10555312;28;20574;-81
2023/03/10 03:28:40;;;;;;;1.70;1.42;;;;;;;-0.99;98.98;98698.31;10547991;28;20052;-83
2023/03/10 03:33:43;;;;;;;2.63;1.65;;;;;;;-1.01;99.04;98698.28;10556734;28;20572;-84
2023/03/10 03:38:45;;;;;;;3.15;1.60;;;;;;;-0.98;99.04;98700.94;10541534;28;20047;-81
2023/03/10 03:43:48;;;;;;;2.85;1.23;;;;;;;-0.96;99.38;98696.75;10533704;28;20086;-81
2023/03/10 03:48:50;;;;;;;0.90;0.88;;;;;;;-0.97;99.28;98704.41;10556919;28;20521;-81
2023/03/10 03:53:52;;;;;;;0.77;0.73;;;;;;;-0.97;99.54;98707.84;10540636;28;20048;-84
2023/03/10 03:58:54;;;;;;;0.50;0.50;;;;;;;-0.94;99.32;98702.78;10549880;28;20044;-82
2023/03/10 04:03:56;;;;;;;1.05;1.00;;;;;;;-0.97;99.24;98712.97;10554611;28;20055;-83
2023/03/10 04:08:58;;;;;;;1.17;0.95;;;;;;;-0.94;99.40;98719.91;10530262;28;20036;-84
2023/03/10 04:14:02;;;;;;;1.10;0.90;;;;;;;-0.98;99.33;98713.78;10546029;28;20040;-85
2023/03/10 04:19:06;;;;;;;1.55;0.98;;;;;;;-0.97;99.39;98719.81;10537906;28;20067;-82
2023/03/10 04:24:09;;;;;;;0.70;0.70;;;;;;;-0.99;99.58;98724.91;10521062;28;20063;-82
2023/03/10 04:29:11;;;;;;;1.25;1.15;;;;;;;-0.96;99.83;98724.13;10541554;28;20472;-82
2023/03/10 04:34:14;;;;;;;1.45;0.90;;;;;;;-0.96;99.91;98725.00;10559937;28;20059;-82
2023/03/10 04:39:16;;;;;;;1.15;1.05;;;;;;;-0.93;99.34;98730.22;10545283;28;20039;-81
2023/03/10 04:44:18;;;;;;;1.45;1.33;;;;;;;-0.96;99.83;98727.56;10561026;28;20036;-84
2023/03/10 04:49:33;;;;;;;0.57;0.57;;;;;;;-0.97;99.56;98725.81;10549112;28;20133;-83
2023/03/10 04:54:35;;;;;;;1.20;1.10;;;;;;;-0.95;99.86;98733.56;10563251;28;20237;-82
2023/03/10 04:59:37;;;;;;;1.33;0.80;;;;;;;-0.96;99.66;98732.72;10570829;28;20043;-84
2023/03/10 05:04:39;;;;;;;0.77;0.77;;;;;;;-0.94;99.73;98731.06;10549854;28;20136;-81
2023/03/10 05:09:42;;;;;;;2.25;1.42;;;;;;;-0.97;99.85;98723.25;10547438;28;20055;-83
2023/03/10 05:14:44;;;;;;;1.08;0.98;;;;;;;-0.95;99.74;98719.03;10575105;28;20044;-81
2023/03/10 05:19:46;;;;;;;2.58;1.88;;;;;;;-0.96;99.71;98727.56;10540835;28;20146;-83
2023/03/10 05:24:48;;;;;;;1.30;1.20;;;;;;;-0.94;99.90;98725.06;10548139;28;20071;-83
2023/03/10 05:29:51;;;;;;;1.75;1.40;;;;;;;-0.93;99.72;98725.09;10556698;28;20039;-84
2023/03/10 05:34:57;;;;;;;3.28;2.10;;;;;;;-0.95;99.84;98725.88;10539564;28;20151;-81
2023/03/10 05:39:59;;;;;;;1.45;1.00;;;;;;;-0.95;99.68;98725.88;10530772;28;20048;-82
2023/03/10 05:45:01;;;;;;;1.85;1.45;;;;;;;-0.98;99.62;98728.34;10559456;28;20051;-82
2023/03/10 05:50:04;;;;;;;2.88;2.35;;;;;;;-0.98;100.00;98729.19;10546553;28;20053;-82
2023/03/10 05:55:07;;;;;;;0.47;0.47;;;;;;;-0.95;99.93;98723.28;10550249;28;20048;-82
2023/03/10 06:00:10;;;;;;;4.28;1.90;;;;;;;-0.98;100.00;98718.06;10537017;28;20512;-84
2023/03/10 06:05:18;;;;;;;2.50;1.13;;;;;;;-1.01;99.90;98731.69;10553151;28;20542;-82
2023/03/10 06:10:20;;;;;;;2.00;1.45;;;;;;;-0.99;99.80;98732.63;10557472;28;20043;-83
2023/03/10 06:15:21;;;;;;;0.75;0.75;;;;;;;-0.98;99.85;98731.78;10548500;28;20047;-82
2023/03/10 06:20:23;;;;;;;6.47;2.08;;;;;;;-0.97;100.00;98730.97;10547126;28;20044;-83
2023/03/10 06:25:25;;;;;;;1.15;1.05;;;;;;;-0.93;100.00;98732.81;10536194;27;20528;-83
2023/03/10 06:30:27;;;;;;;2.83;1.88;;;;;;;-0.93;100.00;98731.91;10570964;28;20118;-84
2023/03/10 06:35:30;;;;;;;0.28;0.28;;;;;;;-0.93;100.00;98735.38;10521045;28;20479;-84
2023/03/10 06:40:31;;;;;;;2.13;1.65;;;;;;;-0.92;100.00;98744.81;10555871;28;20047;-85
2023/03/10 06:45:33;;;;;;;2.72;2.28;;;;;;;-0.89;99.95;98744.03;10530240;28;20063;-83
2023/03/10 06:50:34;;;;;;;0.65;0.65;;;;;;;-0.91;100.00;98751.69;10573437;28;20078;-83
2023/03/10 06:55:37;;;;;;;3.67;2.47;;;;;;;-0.92;100.00;98755.06;10571196;28;20044;-83
2023/03/10 07:00:38;;;;;;;8.73;1.65;;;;;;;-0.92;100.00;98762.78;10568553;27;20051;-83
2023/03/10 07:05:40;;;;;;;1.48;1.25;;;;;;;-0.92;100.00;98769.63;10574385;28;20491;-81
2023/03/10 07:10:41;;;;;;;2.10;1.40;;;;;;;-0.94;99.92;98771.28;10576683;28;20047;-84
2023/03/10 07:15:44;;;;;;;2.97;0.95;;;;;;;-0.91;100.00;98787.66;10577326;28;20123;-81
2023/03/10 07:20:51;;;;;;;0.95;0.75;;;;;;;-0.91;100.00;98787.66;10577063;28;20071;-84
2023/03/10 07:25:55;;;;;;;0.57;0.57;;;;;;;-0.90;100.00;98791.13;10541547;28;20054;-85
2023/03/10 07:31:01;;;;;;;1.33;1.23;;;;;;;-0.90;99.98;98797.13;10548253;28;20036;-87
2023/03/10 07:36:05;;;;;;;2.10;1.42;;;;;;;-0.93;100.00;98793.56;10566807;28;20054;-84
2023/03/10 07:41:08;;;;;;;2.58;2.20;;;;;;;-0.96;100.00;98799.50;10547535;28;20039;-85
2023/03/10 07:46:12;;;;;;;0.80;0.80;;;;;;;-0.96;100.00;98799.50;10566730;28;20043;-84
2023/03/10 07:51:15;;;;;;;2.03;1.73;;;;;;;-1.00;100.00;98801.94;10569099;28;20048;-85
2023/03/10 07:56:16;;;;;;;4.13;2.20;;;;;;;-0.99;100.00;98796.84;10547091;28;20522;-86
2023/03/10 08:01:20;;;;;;;1.05;0.98;;;;;;;-1.02;100.00;98798.44;10537957;28;20050;-85
2023/03/10 08:06:26;;;;;;;3.25;1.67;;;;;;;-0.97;100.00;98805.47;10559822;28;20418;-85
2023/03/10 08:11:28;;;;;;;0.73;0.65;;;;;;;-0.98;99.98;98806.28;10567596;28;20047;-85
2023/03/10 08:16:29;;;;;;;0.80;0.60;;;;;;;-0.80;100.00;98820.53;10533970;27;20044;-87
2023/03/10 08:21:31;;;;;;;1.33;1.20;;;;;;;-0.78;100.00;98829.16;10540388;28;20043;-85
2023/03/10 08:26:33;;;;;;;0.73;0.73;;;;;;;-0.72;100.00;98824.22;10525064;28;20445;-83
2023/03/10 08:31:34;;;;;;;0.43;0.43;;;;;;;-0.67;100.00;98830.38;10574551;28;20052;-84
2023/03/10 08:36:37;;;;;;;1.70;1.48;;;;;;;-0.64;100.00;98835.59;10577632;28;20074;-83
2023/03/10 08:41:47;;;;;;;2.25;1.70;;;;;;;-0.50;100.00;98840.28;10558490;28;20342;-82
2023/03/10 08:46:49;;;;;;;2.03;1.60;;;;;;;-0.42;100.00;98838.81;10555555;28;20051;-84
2023/03/10 08:51:51;;;;;;;1.25;1.15;;;;;;;-0.45;100.00;98834.47;10582169;28;20040;-84
2023/03/10 08:56:53;;;;;;;2.53;1.73;;;;;;;-0.46;100.00;98814.72;10580090;28;20051;-83
2023/03/10 09:01:55;;;;;;;1.95;1.80;;;;;;;-0.42;100.00;98805.38;10580511;28;20036;-82
2023/03/10 09:06:56;;;;;;;1.33;1.23;;;;;;;-0.48;100.00;98803.53;10563557;28;20051;-82
2023/03/10 09:11:58;;;;;;;1.23;1.15;;;;;;;-0.30;100.00;98815.16;10580019;28;20451;-83
2023/03/10 09:17:00;;;;;;;2.78;2.05;;;;;;;-0.15;100.00;98843.91;10579746;28;20088;-84
2023/03/10 09:22:01;;;;;;;2.45;1.38;;;;;;;-0.26;100.00;98851.28;10579711;28;20040;-83
2023/03/10 09:27:03;;;;;;;1.60;1.42;;;;;;;-0.16;100.00;98855.03;10575529;28;20047;-82
2023/03/10 09:32:05;;;;;;;0.57;0.57;;;;;;;-0.23;100.00;98866.81;10555165;28;20652;-82
2023/03/10 09:37:09;;;;;;;1.50;1.40;;;;;;;-0.13;99.85;98864.53;10559411;28;20036;-82
2023/03/10 09:42:10;;;;;;;1.88;1.20;;;;;;;-0.10;99.74;98868.06;10560099;28;20044;-82
2023/03/10 09:47:38;;;;;;;1.65;1.35;;;;;;;0.09;99.62;98854.03;10573609;28;20115;-82
2023/03/10 09:52:46;;;;;;;0.98;0.95;;;;;;;0.06;99.57;98848.78;10536801;28;20031;-81
2023/03/10 09:57:53;;;;;;;0.88;0.85;;;;;;;0.20;99.63;98850.88;10559655;28;20047;-82
2023/03/10 10:03:41;;;;;;;0.82;0.82;;;;;;;0.39;99.18;98853.13;10548664;28;20040;-81
2023/03/10 10:08:57;;;;;;;0.65;0.65;;;;;;;0.39;99.40;98863.41;10539425;28;20047;-80
2023/03/10 10:14:35;;;;;;;2.35;1.95;;;;;;;0.50;98.92;98874.88;10554525;28;20048;-83
2023/03/10 10:19:41;;;;;;;3.78;1.58;;;;;;;0.22;98.85;98882.66;10542909;28;20044;-81
2023/03/10 10:25:09;;;;;;;1.50;1.27;;;;;;;0.46;98.47;98874.75;10590859;27;20035;-84
2023/03/10 10:30:37;;;;;;;1.50;1.40;;;;;;;0.44;98.58;98872.13;10545544;28;20047;-83
2023/03/10 10:35:42;;;;;;;1.92;1.25;;;;;;;0.33;97.97;98881.25;10542605;27;20454;-83
2023/03/10 10:40:59;;;;;;;3.30;2.42;;;;;;;0.40;98.27;98890.03;10533685;28;20041;-82
2023/03/10 10:46:05;;;;;;;1.30;0.73;;;;;;;0.46;97.70;98891.06;10555556;28;20196;-82
2023/03/10 10:51:31;;;;;;;1.00;0.90;;;;;;;0.62;97.66;98894.06;10543398;28;20032;-83
2023/03/10 10:56:32;;;;;;;2.05;1.52;;;;;;;0.44;97.60;98890.16;10563673;28;20430;-83
2023/03/10 11:01:50;;;;;;;1.77;1.60;;;;;;;0.48;97.16;98894.56;10555119;28;20040;-83
2023/03/10 11:07:07;;;;;;;1.38;1.02;;;;;;;0.46;97.14;98883.34;10545598;28;20048;-82
2023/03/10 11:12:31;;;;;;;2.15;1.40;;;;;;;0.49;96.89;98874.81;10531869;28;20039;-83
2023/03/10 11:17:56;;;;;;;0.52;0.52;;;;;;;0.44;96.71;98866.97;10552098;28;20043;-82
2023/03/10 11:23:14;;;;;;;1.90;1.40;;;;;;;0.55;96.50;98861.25;10531737;28;20032;-82
2023/03/10 11:28:45;;;;;;;4.90;2.65;;;;;;;0.57;96.70;98868.19;10538555;28;20048;-82
2023/03/10 11:34:05;;;;;;;1.63;1.35;;;;;;;0.53;96.51;98862.06;10538030;28;20063;-82
2023/03/10 11:39:18;;;;;;;2.05;1.85;;;;;;;0.47;96.46;98872.22;10547389;28;20043;-81
2023/03/10 11:44:26;;;;;;;2.60;2.08;;;;;;;0.47;95.88;98858.47;10540364;28;20040;-82
2023/03/10 11:49:35;;;;;;;1.25;1.13;;;;;;;0.43;95.81;98860.06;10602385;28;20051;-81
2023/03/10 11:54:41;;;;;;;1.90;1.50;;;;;;;0.57;95.88;98851.84;10577789;28;20110;-81
2023/03/10 11:59:51;;;;;;;2.45;1.15;;;;;;;0.43;95.90;98852.34;10594268;28;20043;-81
2023/03/10 12:05:00;;;;;;;2.55;1.77;;;;;;;0.45;95.90;98848.13;10589997;27;20035;-81
2023/03/10 12:10:11;;;;;;;1.90;1.70;;;;;;;0.42;95.54;98845.47;10578814;28;20041;-81
2023/03/10 12:15:35;;;;;;;2.47;1.27;;;;;;;0.33;95.61;98842.63;10587198;28;20046;-81
2023/03/10 12:20:37;;;;;;;2.42;1.65;;;;;;;0.27;95.78;98845.03;10579402;28;20043;-81
2023/03/10 12:25:38;;;;;;;2.40;1.35;;;;;;;0.44;95.47;98846.38;10590995;27;20038;-81
2023/03/10 12:30:47;;;;;;;4.82;2.55;;;;;;;0.54;95.74;98837.16;10604798;28;20035;-81
2023/03/10 12:35:52;;;;;;;1.63;1.08;;;;;;;0.45;95.37;98824.06;10577088;28;20028;-82
2023/03/10 12:40:55;;;;;;;2.30;1.70;;;;;;;0.41;95.43;98822.25;10585597;28;20050;-82
2023/03/10 12:45:57;;;;;;;1.25;0.90;;;;;;;0.38;95.26;98817.91;10614763;28;20042;-82
2023/03/10 12:51:03;;;;;;;3.25;2.90;;;;;;;0.38;95.17;98825.63;10587142;27;20043;-81
2023/03/10 12:56:11;;;;;;;2.03;1.70;;;;;;;0.37;95.11;98812.72;10576137;27;20031;-81
2023/03/10 13:01:19;;;;;;;4.75;1.52;;;;;;;0.35;95.42;98831.56;10592567;27;20047;-81
2023/03/10 13:06:28;;;;;;;3.83;1.77;;;;;;;0.36;94.99;98822.09;10594766;27;20432;-81
2023/03/10 13:11:52;;;;;;;1.75;1.65;;;;;;;0.37;95.37;98818.72;10583678;27;20633;-81
2023/03/10 13:16:59;;;;;;;0.70;0.65;;;;;;;0.22;95.38;98819.19;10586341;27;20050;-82
2023/03/10 13:22:03;;;;;;;1.05;1.00;;;;;;;0.17;95.36;98818.19;10584489;27;20416;-82
2023/03/10 13:27:14;;;;;;;3.30;2.63;;;;;;;0.19;95.48;98831.09;10593421;27;20035;-79
2023/03/10 13:32:18;;;;;;;3.25;2.22;;;;;;;0.24;95.38;98843.28;10571740;27;20081;-79
2023/03/10 13:37:19;;;;;;;2.22;1.38;;;;;;;0.23;95.38;98850.97;10602979;27;20036;-80
2023/03/10 13:42:26;;;;;;;2.22;2.03;;;;;;;0.14;95.49;98855.00;10587607;27;20049;-81
2023/03/10 13:47:43;;;;;;;2.28;1.80;;;;;;;0.04;95.16;98854.72;10566530;28;20047;-80
2023/03/10 13:52:56;;;;;;;4.47;2.38;;;;;;;0.05;95.56;98851.31;10597057;27;20040;-80
2023/03/10 13:57:58;;;;;;;4.50;2.15;;;;;;;0.07;95.69;98876.25;10583554;27;20070;-81
2023/03/10 14:03:00;;;;;;;3.03;1.77;;;;;;;0.07;95.49;98886.53;10568893;28;20042;-81
2023/03/10 14:08:01;;;;;;;1.25;1.15;;;;;;;0.19;95.74;98888.59;10558837;28;20058;-81
2023/03/10 14:13:03;;;;;;;4.63;1.55;;;;;;;0.32;95.71;98900.97;10550815;28;20135;-80
2023/03/10 14:18:07;;;;;;;1.27;1.20;;;;;;;0.32;95.77;98906.13;10558446;28;20500;-80
2023/03/10 14:23:17;;;;;;;1.60;1.48;;;;;;;0.19;96.12;98898.03;10565106;28;20039;-81
2023/03/10 14:28:32;;;;;;;;;;;;;;;0.07;96.16;98899.41;10520076;28;20040;-82
2023/03/10 14:33:33;;;;;;;4.03;0.82;;;;;;;-0.02;95.93;98900.00;10567433;28;20196;-81
2023/03/10 14:38:35;;;;;;;3.65;1.85;;;;;;;-0.10;96.46;98887.78;10587046;27;20039;-82
2023/03/10 14:43:38;;;;;;;1.48;1.35;;;;;;;-0.12;96.21;98894.56;10585286;27;20042;-81
2023/03/10 14:48:40;;;;;;;0.93;0.88;;;;;;;-0.14;96.69;98904.81;10586722;27;20534;-81
2023/03/10 14:53:42;;;;;;;4.40;2.75;;;;;;;-0.28;96.38;98906.13;10595550;27;20111;-81
2023/03/10 14:58:48;;;;;;;4.88;2.83;;;;;;;-0.28;97.00;98894.13;10594673;27;20045;-81
2023/03/10 15:03:50;;;;;;;2.50;2.00;;;;;;;-0.32;96.74;98897.41;10543642;28;20053;-82
2023/03/10 15:08:51;;;;;;;2.50;1.77;;;;;;;-0.30;97.16;98882.91;10556915;28;20448;-81
2023/03/10 15:13:53;;;;;;;1.55;1.45;;;;;;;-0.34;97.16;98883.66;10576499;27;20027;-81
2023/03/10 15:18:54;;;;;;;1.92;1.15;;;;;;;-0.32;97.14;98887.13;10588724;27;20043;-81
2023/03/10 15:23:56;;;;;;;1.02;0.88;;;;;;;-0.32;97.59;98886.25;10577991;27;20453;-81
2023/03/10 15:28:58;;;;;;;2.53;1.75;;;;;;;-0.43;97.57;98884.22;10596702;27;20036;-81
2023/03/10 15:34:00;;;;;;;2.63;1.48;;;;;;;-0.49;97.45;98873.78;10561284;28;20074;-82
2023/03/10 15:39:02;;;;;;;2.40;1.73;;;;;;;-0.52;97.54;98877.97;10565978;28;20079;-82
2023/03/10 15:44:05;;;;;;;8.15;1.63;;;;;;;-0.50;97.65;98871.16;10566287;28;20040;-82
2023/03/10 15:49:07;;;;;;;1.65;1.40;;;;;;;-0.54;97.72;98876.19;10529373;28;20540;-82
2023/03/10 15:54:11;;;;;;;3.30;1.80;;;;;;;-0.56;98.05;98876.97;10517536;28;20036;-82
2023/03/10 15:59:13;;;;;;;0.75;0.63;;;;;;;-0.60;97.61;98878.59;10557312;28;20036;-81
2023/03/10 16:04:14;;;;;;;2.13;1.20;;;;;;;-0.62;97.85;98887.06;10567975;27;20042;-83
2023/03/10 16:09:16;;;;;;;2.15;1.38;;;;;;;-0.61;98.12;98897.41;10547939;27;20130;-82
2023/03/10 16:14:17;;;;;;;2.08;1.80;;;;;;;-0.62;98.33;98908.50;10538645;28;20032;-81
2023/03/10 16:19:19;;;;;;;1.75;1.38;;;;;;;-0.59;98.27;98913.72;10552672;28;20502;-84
2023/03/10 16:24:21;;;;;;;3.45;1.77;;;;;;;-0.56;98.18;98918.09;10515647;28;20565;-83
2023/03/10 16:29:23;;;;;;;2.60;2.30;;;;;;;-0.59;98.60;98916.31;10546766;28;20047;-85
2023/03/10 16:34:24;;;;;;;2.60;1.75;;;;;;;-0.61;98.26;98925.69;10529253;28;20052;-83
2023/03/10 16:39:30;;;;;;;4.10;1.88;;;;;;;-0.59;98.43;98929.16;10531859;28;20093;-84
2023/03/10 16:44:31;;;;;;;1.38;1.27;;;;;;;-0.61;98.75;98928.25;10562299;28;20043;-82
2023/03/10 16:49:35;;;;;;;0.75;0.75;;;;;;;-0.62;98.67;98934.19;10538849;28;20040;-83
2023/03/10 16:54:36;;;;;;;2.28;1.83;;;;;;;-0.69;98.68;98937.44;10554842;28;20043;-83
2023/03/10 16:59:40;;;;;;;1.58;1.30;;;;;;;-0.71;98.70;98946.75;10556247;28;20044;-82
2023/03/10 17:04:42;;;;;;;1.50;1.38;;;;;;;-0.75;98.93;98955.19;10550327;28;20051;-83
2023/03/10 17:09:44;;;;;;;3.33;2.90;;;;;;;-0.76;98.73;98968.88;10542161;28;20442;-82
2023/03/10 17:14:46;;;;;;;7.05;2.35;;;;;;;-0.79;98.91;98982.50;10536977;28;20044;-83
2023/03/10 17:19:50;;;;;;;1.80;1.63;;;;;;;-0.82;99.13;99007.22;10555419;28;20343;-84
2023/03/10 17:24:56;;;;;;;3.67;2.38;;;;;;;-0.82;98.97;99028.66;10559594;28;20443;-82
2023/03/10 17:29:58;;;;;;;2.72;1.95;;;;;;;-0.84;99.09;99047.41;10560121;28;20093;-82
2023/03/10 17:34:59;;;;;;;2.22;2.03;;;;;;;-0.81;98.96;99076.69;10538568;28;20050;-82
2023/03/10 17:40:01;;;;;;;0.38;0.38;;;;;;;-0.77;99.09;99098.22;10549381;28;20167;-82
2023/03/10 17:45:03;;;;;;;2.85;1.73;;;;;;;-0.74;99.14;99109.47;10563109;28;20396;-82
2023/03/10 17:50:08;;;;;;;1.00;0.75;;;;;;;-0.72;99.17;99119.81;10599654;27;20044;-83
2023/03/10 17:55:09;;;;;;;2.38;2.08;;;;;;;-0.72;99.51;99130.09;10596001;27;20576;-83
2023/03/10 18:00:12;;;;;;;1.13;1.02;;;;;;;-0.73;99.16;99136.94;10571593;27;20061;-82
2023/03/10 18:05:14;;;;;;;2.88;1.85;;;;;;;-0.72;99.42;99148.97;10576752;27;20031;-83
2023/03/10 18:10:16;;;;;;;1.77;1.27;;;;;;;-0.76;99.49;99161.66;10584237;27;20047;-82
2023/03/10 18:15:17;;;;;;;3.00;2.00;;;;;;;-0.76;99.44;99174.50;10595064;27;20043;-82
2023/03/10 18:20:19;;;;;;;1.55;1.35;;;;;;;-0.76;99.47;99180.50;10575216;27;20066;-82
2023/03/10 18:25:20;;;;;;;2.97;1.52;;;;;;;-0.79;99.52;99190.69;10585349;27;20140;-82
2023/03/10 18:30:23;;;;;;;1.35;1.08;;;;;;;-0.81;99.41;99214.56;10602315;27;20035;-82
2023/03/10 18:35:24;;;;;;;0.60;0.60;;;;;;;-0.81;99.53;99232.56;10601376;27;20126;-82
2023/03/10 18:40:26;;;;;;;2.88;1.92;;;;;;;-0.79;99.53;99249.81;10555065;28;20052;-82
2023/03/10 18:45:28;;;;;;;1.65;1.45;;;;;;;-0.79;99.39;99266.94;10572991;27;20472;-83
2023/03/10 18:50:29;;;;;;;1.10;1.00;;;;;;;-0.82;99.40;99282.22;10590109;27;20036;-82
2023/03/10 18:55:31;;;;;;;0.85;0.75;;;;;;;-0.79;99.24;99308.06;10589770;27;20079;-83
2023/03/10 19:00:32;;;;;;;1.23;1.08;;;;;;;-0.80;99.57;99324.28;10596961;27;20108;-83
2023/03/10 19:05:34;;;;;;;1.10;1.00;;;;;;;-0.84;99.78;99346.44;10574249;27;20449;-83
2023/03/10 19:10:38;;;;;;;0.85;0.82;;;;;;;-0.81;99.55;99364.53;10583267;27;20166;-84
2023/03/10 19:15:39;;;;;;;0.90;0.85;;;;;;;-0.80;99.22;99376.56;10606332;27;20515;-82
2023/03/10 19:20:42;;;;;;;1.42;1.30;;;;;;;-0.82;99.48;99397.91;10567285;27;20671;-83
2023/03/10 19:25:44;;;;;;;1.05;0.95;;;;;;;-0.80;99.58;99415.09;10572799;27;20051;-82
2023/03/10 19:30:46;;;;;;;1.20;0.93;;;;;;;-0.81;99.35;99421.09;10568654;27;20738;-82
2023/03/10 19:35:48;;;;;;;1.55;1.45;;;;;;;-0.81;99.59;99433.03;10588014;27;20447;-83
2023/03/10 19:40:50;;;;;;;1.95;1.00;;;;;;;-0.83;99.35;99444.97;10557019;28;20509;-83
2023/03/10 19:46:01;;;;;;;2.38;1.58;;;;;;;-0.81;99.75;99444.22;10584078;28;20491;-83
2023/03/10 19:51:06;;;;;;;0.95;0.82;;;;;;;-0.81;99.79;99445.88;10577021;28;20047;-83
2023/03/10 19:56:08;;;;;;;0.68;0.50;;;;;;;-0.84;99.78;99456.03;10577661;28;20044;-82
2023/03/10 20:01:12;;;;;;;3.00;1.83;;;;;;;-0.84;99.87;99471.47;10578562;27;20039;-83
2023/03/10 20:06:13;;;;;;;0.85;0.85;;;;;;;-0.84;99.77;99487.78;10583371;27;20050;-83
2023/03/10 20:11:15;;;;;;;1.40;0.88;;;;;;;-0.81;99.61;99507.56;10585739;27;20036;-83
2023/03/10 20:16:22;;;;;;;1.48;0.95;;;;;;;-0.84;99.75;99520.31;10585795;27;20035;-83
2023/03/10 20:21:25;;;;;;;2.17;1.35;;;;;;;-0.82;99.93;99534.97;10567954;27;20088;-82
2023/03/10 20:26:27;;;;;;;1.10;0.52;;;;;;;-0.82;99.69;99552.97;10583358;27;20050;-83
2023/03/10 20:31:32;;;;;;;0.43;0.43;;;;;;;-0.79;99.65;99562.53;10596702;27;20092;-81
2023/03/10 20:36:34;;;;;;;0.40;0.40;;;;;;;-0.79;99.63;99583.09;10562165;27;20036;-82
2023/03/10 20:41:35;;;;;;;0.63;0.63;;;;;;;-0.75;99.21;99587.53;10587200;27;20047;-83
2023/03/10 20:46:37;;;;;;;0.52;0.43;;;;;;;-0.74;99.63;99605.56;10587254;27;20035;-83
2023/03/10 20:51:39;;;;;;;0.70;0.70;;;;;;;-0.74;99.50;99607.28;10578638;27;20613;-82
2023/03/10 20:56:41;;;;;;;1.30;0.85;;;;;;;-0.73;99.43;99627.91;10586945;27;20042;-84
2023/03/10 21:01:42;;;;;;;2.28;1.55;;;;;;;-0.74;99.28;99643.28;10578246;27;20445;-84
2023/03/10 21:06:45;;;;;;;0.40;0.40;;;;;;;-0.77;99.93;99648.28;10578760;27;20040;-83
2023/03/10 21:11:47;;;;;;;0.38;0.38;;;;;;;-0.77;99.40;99659.44;10584188;27;20517;-83
2023/03/10 21:16:48;;;;;;;0.13;0.13;;;;;;;-0.80;99.63;99669.59;10569811;27;20411;-84
2023/03/10 21:21:50;;;;;;;0.70;0.70;;;;;;;-0.81;99.69;99684.94;10577666;27;20057;-83
2023/03/10 21:26:52;;;;;;;0.20;0.20;;;;;;;-0.82;99.49;99699.50;10577428;27;20027;-83
2023/03/10 21:31:53;;;;;;;1.70;1.33;;;;;;;-0.81;99.51;99702.94;10576898;27;20418;-83
2023/03/10 21:36:55;;;;;;;0.32;0.32;;;;;;;-0.88;99.50;99716.34;10581066;27;20490;-83
2023/03/10 21:41:56;;;;;;;0.47;0.47;;;;;;;-0.86;99.73;99730.13;10567138;27;20051;-84
2023/03/10 21:46:58;;;;;;;0.20;0.20;;;;;;;-0.84;99.87;99734.53;10584792;27;20108;-84
2023/03/10 21:51:59;;;;;;;0.10;0.10;;;;;;;-0.83;99.70;99748.25;10579369;27;20046;-83
2023/03/10 21:57:01;;;;;;;0.45;0.45;;;;;;;-0.88;99.76;99753.19;10541511;27;20054;-83
2023/03/10 22:02:02;;;;;;;0.20;0.20;;;;;;;-0.83;99.77;99761.09;10589241;27;20570;-84
2023/03/10 22:07:05;;;;;;;0.25;0.25;;;;;;;-0.87;99.83;99762.66;10576712;27;20451;-84
2023/03/10 22:12:07;;;;;;;0.10;0.10;;;;;;;-0.88;99.72;99781.47;10580618;27;20134;-85
2023/03/10 22:17:09;;;;;;;0.10;0.10;;;;;;;-0.86;99.36;99799.53;10580760;27;20060;-85
2023/03/10 22:22:11;;;;;;;0.65;0.35;;;;;;;-0.86;99.61;99795.25;10579544;27;20040;-84
2023/03/10 22:27:12;;;;;;;0.10;0.10;;;;;;;-0.88;99.49;99814.88;10573866;27;20495;-84
2023/03/10 22:32:14;;;;;;;0.50;0.20;;;;;;;-0.84;99.38;99819.38;10556192;27;20048;-83
2023/03/10 22:37:15;;;;;;;0.45;0.35;;;;;;;-0.86;99.33;99826.09;10566917;27;20041;-84
2023/03/10 22:42:17;;;;;;;0.20;0.20;;;;;;;-0.89;99.18;99841.38;10598033;27;20039;-84
2023/03/10 22:47:18;;;;;;;0.20;0.20;;;;;;;-0.91;99.60;99846.44;10586253;27;20530;-84
2023/03/10 22:52:20;;;;;;;0.38;0.38;;;;;;;-0.84;99.33;99851.88;10556053;27;20047;-84
2023/03/10 22:57:22;;;;;;;0.20;0.20;;;;;;;-0.83;99.25;99863.94;10590145;27;20046;-83
2023/03/10 23:02:23;;;;;;;0.45;0.43;;;;;;;-0.84;99.23;99882.72;10568613;27;20603;-84
2023/03/10 23:07:25;;;;;;;0.47;0.47;;;;;;;-0.84;99.23;99891.34;10572345;27;20047;-84
2023/03/10 23:12:26;;;;;;;0.20;0.20;;;;;;;-0.80;99.42;99897.50;10579848;27;20050;-84
2023/03/10 23:17:28;;;;;;;0.55;0.45;;;;;;;-0.82;99.48;99909.41;10573066;27;20040;-84
2023/03/10 23:22:31;;;;;;;0.10;0.10;;;;;;;-0.82;99.60;99906.84;10566469;27;20518;-84
2023/03/10 23:27:32;;;;;;;0.20;0.20;;;;;;;-0.81;99.05;99911.16;10570607;27;20054;-85
2023/03/10 23:32:34;;;;;;;0.10;0.10;;;;;;;-0.83;99.34;99915.34;10588775;27;20051;-84
2023/03/10 23:37:35;;;;;;;0.22;0.22;;;;;;;-0.84;99.36;99922.19;10570003;27;20119;-84